sensor_id;sensor_type;location;lat;lon;timestamp;pressure;altitude;pressure_sealevel;temperature;humidity
6028;BME280;3042;43.194;27.646;2023-04-05T00:02:05;101051.47;;;10.46;100.00
6028;BME280;3042;43.194;27.646;2023-04-05T00:04:38;101044.47;;;10.61;100.00
6028;BME280;3042;43.194;27.646;2023-04-05T00:07:16;101029.47;;;10.90;100.00
6028;BME280;3042;43.194;27.646;2023-04-05T00:09:43;100873.84;;;9.70;100.00
6028;BME280;3042;43.194;27.646;2023-04-05T00:12:12;101057.00;;;10.35;100.00
6028;BME280;3042;43.194;27.646;2023-04-05T00:14:39;101059.84;;;10.42;100.00
6028;BME280;3042;43.194;27.646;2023-04-05T00:17:05;101066.38;;;10.01;100.00
6028;BME280;3042;43.194;27.646;2023-04-05T00:19:32;101060.22;;;10.15;100.00
6028;BME280;3042;43.194;27.646;2023-04-05T00:22:01;101056.44;;;9.92;100.00
6028;BME280;3042;43.194;27.646;2023-04-05T00:24:29;101057.00;;;10.19;100.00
6028;BME280;3042;43.194;27.646;2023-04-05T00:26:58;101050.84;;;10.33;100.00
6028;BME280;3042;43.194;27.646;2023-04-05T00:29:25;101052.13;;;10.25;100.00
6028;BME280;3042;43.194;27.646;2023-04-05T00:31:52;101040.53;;;10.33;100.00
6028;BME280;3042;43.194;27.646;2023-04-05T00:34:19;101052.38;;;10.30;100.00
6028;BME280;3042;43.194;27.646;2023-04-05T00:36:46;101054.88;;;10.45;100.00
6028;BME280;3042;43.194;27.646;2023-04-05T00:39:13;101031.81;;;10.15;100.00
6028;BME280;3042;43.194;27.646;2023-04-05T00:41:41;101014.88;;;10.54;100.00
6028;BME280;3042;43.194;27.646;2023-04-05T00:44:08;101062.16;;;10.35;100.00
6028;BME280;3042;43.194;27.646;2023-04-05T00:46:37;101046.69;;;10.71;100.00
6028;BME280;3042;43.194;27.646;2023-04-05T00:49:04;101041.88;;;10.79;100.00
6028;BME280;3042;43.194;27.646;2023-04-05T00:51:32;101052.22;;;10.61;100.00
6028;BME280;3042;43.194;27.646;2023-04-05T00:54:00;101047.00;;;10.77;100.00
6028;BME280;3042;43.194;27.646;2023-04-05T00:56:28;101047.97;;;10.80;100.00
6028;BME280;3042;43.194;27.646;2023-04-05T00:58:57;101054.59;;;10.74;100.00
6028;BME280;3042;43.194;27.646;2023-04-05T01:01:25;101050.38;;;10.59;100.00
6028;BME280;3042;43.194;27.646;2023-04-05T01:03:56;101061.03;;;10.30;100.00
6028;BME280;3042;43.194;27.646;2023-04-05T01:06:50;101058.97;;;10.41;100.00
6028;BME280;3042;43.194;27.646;2023-04-05T01:09:31;101058.00;;;10.39;100.00
6028;BME280;3042;43.194;27.646;2023-04-05T01:12:03;101070.56;;;9.99;100.00
6028;BME280;3042;43.194;27.646;2023-04-05T01:14:45;101054.69;;;10.42;100.00
6028;BME280;3042;43.194;27.646;2023-04-05T01:17:14;101064.03;;;10.05;100.00
6028;BME280;3042;43.194;27.646;2023-04-05T01:19:46;101058.41;;;10.47;100.00
6028;BME280;3042;43.194;27.646;2023-04-05T01:25:42;101050.75;;;10.66;100.00
6028;BME280;3042;43.194;27.646;2023-04-05T01:28:28;101050.44;;;10.60;100.00
6028;BME280;3042;43.194;27.646;2023-04-05T01:31:06;101058.09;;;10.41;100.00
6028;BME280;3042;43.194;27.646;2023-04-05T01:33:38;101054.00;;;10.62;100.00
6028;BME280;3042;43.194;27.646;2023-04-05T01:36:15;101049.50;;;10.94;100.00
6028;BME280;3042;43.194;27.646;2023-04-05T01:38:45;101058.53;;;10.84;100.00
6028;BME280;3042;43.194;27.646;2023-04-05T01:41:14;101041.31;;;10.49;100.00
6028;BME280;3042;43.194;27.646;2023-04-05T01:43:41;101066.56;;;10.72;100.00
6028;BME280;3042;43.194;27.646;2023-04-05T01:46:09;101061.69;;;10.78;100.00
6028;BME280;3042;43.194;27.646;2023-04-05T01:48:36;101073.03;;;10.64;100.00
6028;BME280;3042;43.194;27.646;2023-04-05T01:51:04;101030.78;;;10.46;100.00
6028;BME280;3042;43.194;27.646;2023-04-05T01:53:31;100922.78;;;9.68;100.00
6028;BME280;3042;43.194;27.646;2023-04-05T01:55:59;101077.19;;;10.78;100.00
6028;BME280;3042;43.194;27.646;2023-04-05T01:58:27;101091.19;;;10.48;100.00
6028;BME280;3042;43.194;27.646;2023-04-05T02:00:54;101066.22;;;10.30;100.00
6028;BME280;3042;43.194;27.646;2023-04-05T02:03:22;101097.31;;;10.50;100.00
6028;BME280;3042;43.194;27.646;2023-04-05T02:05:50;101105.91;;;10.16;100.00
6028;BME280;3042;43.194;27.646;2023-04-05T02:08:17;101093.66;;;10.28;100.00
6028;BME280;3042;43.194;27.646;2023-04-05T02:10:44;101085.28;;;10.50;100.00
6028;BME280;3042;43.194;27.646;2023-04-05T02:13:12;101077.03;;;9.74;100.00
6028;BME280;3042;43.194;27.646;2023-04-05T02:15:39;100997.09;;;9.76;100.00
6028;BME280;3042;43.194;27.646;2023-04-05T02:18:06;101004.97;;;10.11;100.00
6028;BME280;3042;43.194;27.646;2023-04-05T02:20:35;101086.09;;;10.67;100.00
6028;BME280;3042;43.194;27.646;2023-04-05T02:23:02;101099.75;;;10.47;100.00
6028;BME280;3042;43.194;27.646;2023-04-05T02:25:28;101102.56;;;10.51;100.00
6028;BME280;3042;43.194;27.646;2023-04-05T02:27:56;101076.81;;;10.71;100.00
6028;BME280;3042;43.194;27.646;2023-04-05T02:30:23;101087.53;;;10.61;100.00
6028;BME280;3042;43.194;27.646;2023-04-05T02:32:53;101091.50;;;10.54;100.00
6028;BME280;3042;43.194;27.646;2023-04-05T02:35:20;101105.09;;;10.33;100.00
6028;BME280;3042;43.194;27.646;2023-04-05T02:37:49;101093.22;;;10.37;100.00
6028;BME280;3042;43.194;27.646;2023-04-05T02:40:15;100934.25;;;9.24;100.00
6028;BME280;3042;43.194;27.646;2023-04-05T02:42:42;101113.97;;;9.89;100.00
6028;BME280;3042;43.194;27.646;2023-04-05T02:45:10;100969.47;;;9.24;100.00
6028;BME280;3042;43.194;27.646;2023-04-05T02:47:36;101103.78;;;10.09;100.00
6028;BME280;3042;43.194;27.646;2023-04-05T02:50:04;101110.25;;;9.84;100.00
6028;BME280;3042;43.194;27.646;2023-04-05T02:52:31;101104.59;;;10.08;100.00
6028;BME280;3042;43.194;27.646;2023-04-05T02:55:00;101103.72;;;10.07;100.00
6028;BME280;3042;43.194;27.646;2023-04-05T02:57:27;100893.44;;;8.83;100.00
6028;BME280;3042;43.194;27.646;2023-04-05T02:59:54;101114.94;;;10.08;100.00
6028;BME280;3042;43.194;27.646;2023-04-05T03:02:21;101112.59;;;10.12;100.00
6028;BME280;3042;43.194;27.646;2023-04-05T03:04:50;101106.63;;;10.30;100.00
6028;BME280;3042;43.194;27.646;2023-04-05T03:07:17;101105.47;;;10.41;100.00
6028;BME280;3042;43.194;27.646;2023-04-05T03:09:46;101108.94;;;10.42;100.00
6028;BME280;3042;43.194;27.646;2023-04-05T03:12:14;101097.28;;;10.66;100.00
6028;BME280;3042;43.194;27.646;2023-04-05T03:14:41;101104.06;;;10.64;100.00
6028;BME280;3042;43.194;27.646;2023-04-05T03:17:10;101108.78;;;10.39;100.00
6028;BME280;3042;43.194;27.646;2023-04-05T03:19:37;101110.56;;;10.56;100.00
6028;BME280;3042;43.194;27.646;2023-04-05T03:22:04;101058.09;;;10.41;100.00
6028;BME280;3042;43.194;27.646;2023-04-05T03:24:32;101122.03;;;10.45;100.00
6028;BME280;3042;43.194;27.646;2023-04-05T03:27:00;101113.16;;;10.40;100.00
6028;BME280;3042;43.194;27.646;2023-04-05T03:29:30;101102.44;;;10.66;100.00
6028;BME280;3042;43.194;27.646;2023-04-05T03:31:57;101111.34;;;10.55;100.00
6028;BME280;3042;43.194;27.646;2023-04-05T03:34:24;101003.03;;;10.07;100.00
6028;BME280;3042;43.194;27.646;2023-04-05T03:36:53;101120.78;;;10.54;100.00
6028;BME280;3042;43.194;27.646;2023-04-05T03:39:20;101121.63;;;10.71;100.00
6028;BME280;3042;43.194;27.646;2023-04-05T03:41:47;101119.50;;;10.46;100.00
6028;BME280;3042;43.194;27.646;2023-04-05T03:44:14;101124.25;;;10.55;100.00
6028;BME280;3042;43.194;27.646;2023-04-05T03:46:42;101118.09;;;10.69;100.00
6028;BME280;3042;43.194;27.646;2023-04-05T03:49:09;101085.25;;;10.32;100.00
6028;BME280;3042;43.194;27.646;2023-04-05T03:51:36;101137.34;;;10.42;100.00
6028;BME280;3042;43.194;27.646;2023-04-05T03:54:03;101124.72;;;10.64;100.00
6028;BME280;3042;43.194;27.646;2023-04-05T03:56:31;101142.88;;;10.31;100.00
6028;BME280;3042;43.194;27.646;2023-04-05T03:58:58;101153.03;;;10.12;100.00
6028;BME280;3042;43.194;27.646;2023-04-05T04:01:26;101078.06;;;9.78;100.00
6028;BME280;3042;43.194;27.646;2023-04-05T04:03:55;101152.44;;;10.01;100.00
6028;BME280;3042;43.194;27.646;2023-04-05T04:06:22;101160.56;;;9.92;100.00
6028;BME280;3042;43.194;27.646;2023-04-05T04:08:51;101154.47;;;10.07;100.00
6028;BME280;3042;43.194;27.646;2023-04-05T04:11:18;101063.16;;;9.24;100.00
6028;BME280;3042;43.194;27.646;2023-04-05T04:13:45;101162.03;;;10.04;100.00
6028;BME280;3042;43.194;27.646;2023-04-05T04:16:12;101164.81;;;10.07;100.00
6028;BME280;3042;43.194;27.646;2023-04-05T04:18:40;101160.28;;;10.03;100.00
6028;BME280;3042;43.194;27.646;2023-04-05T04:21:08;101146.78;;;10.08;100.00
6028;BME280;3042;43.194;27.646;2023-04-05T04:23:37;101165.91;;;9.96;100.00
6028;BME280;3042;43.194;27.646;2023-04-05T04:26:05;101108.50;;;9.83;100.00
6028;BME280;3042;43.194;27.646;2023-04-05T04:28:32;101155.59;;;9.96;100.00
6028;BME280;3042;43.194;27.646;2023-04-05T04:31:03;101125.19;;;9.42;100.00
6028;BME280;3042;43.194;27.646;2023-04-05T04:33:30;101168.38;;;9.78;100.00
6028;BME280;3042;43.194;27.646;2023-04-05T04:35:58;100938.72;;;8.79;100.00
6028;BME280;3042;43.194;27.646;2023-04-05T04:38:28;101068.09;;;9.36;100.00
6028;BME280;3042;43.194;27.646;2023-04-05T04:40:59;101171.13;;;9.81;100.00
6028;BME280;3042;43.194;27.646;2023-04-05T04:43:27;101171.09;;;9.96;100.00
6028;BME280;3042;43.194;27.646;2023-04-05T04:46:01;101175.81;;;10.04;100.00
6028;BME280;3042;43.194;27.646;2023-04-05T04:48:35;101163.34;;;10.12;100.00
6028;BME280;3042;43.194;27.646;2023-04-05T04:51:02;101175.91;;;9.89;100.00
6028;BME280;3042;43.194;27.646;2023-04-05T04:53:31;101181.22;;;9.92;100.00
6028;BME280;3042;43.194;27.646;2023-04-05T04:55:58;101168.50;;;10.12;100.00
6028;BME280;3042;43.194;27.646;2023-04-05T04:58:25;101173.97;;;10.18;100.00
6028;BME280;3042;43.194;27.646;2023-04-05T05:00:53;101174.94;;;10.20;100.00
6028;BME280;3042;43.194;27.646;2023-04-05T05:03:21;101103.78;;;9.92;100.00
6028;BME280;3042;43.194;27.646;2023-04-05T05:05:49;101171.75;;;10.41;100.00
6028;BME280;3042;43.194;27.646;2023-04-05T05:08:18;101178.53;;;10.39;100.00
6028;BME280;3042;43.194;27.646;2023-04-05T05:10:49;101157.34;;;10.62;100.00
6028;BME280;3042;43.194;27.646;2023-04-05T05:13:16;101177.56;;;10.37;100.00
6028;BME280;3042;43.194;27.646;2023-04-05T05:15:43;101154.28;;;10.53;100.00
6028;BME280;3042;43.194;27.646;2023-04-05T05:18:11;101024.13;;;9.82;100.00
6028;BME280;3042;43.194;27.646;2023-04-05T05:20:38;101154.59;;;10.75;100.00
6028;BME280;3042;43.194;27.646;2023-04-05T05:23:05;101160.94;;;10.82;100.00
6028;BME280;3042;43.194;27.646;2023-04-05T05:25:32;101153.56;;;10.90;100.00
6028;BME280;3042;43.194;27.646;2023-04-05T05:28:01;101012.50;;;10.07;100.00
6028;BME280;3042;43.194;27.646;2023-04-05T05:30:27;101108.06;;;10.75;100.00
6028;BME280;3042;43.194;27.646;2023-04-05T05:32:55;101144.84;;;11.24;100.00
6028;BME280;3042;43.194;27.646;2023-04-05T05:35:22;101158.47;;;11.19;100.00
6028;BME280;3042;43.194;27.646;2023-04-05T05:37:49;101099.28;;;10.90;100.00
6028;BME280;3042;43.194;27.646;2023-04-05T05:40:17;101166.75;;;11.12;100.00
6028;BME280;3042;43.194;27.646;2023-04-05T05:42:44;101138.94;;;11.44;100.00
6028;BME280;3042;43.194;27.646;2023-04-05T05:45:12;101146.59;;;11.60;100.00
6028;BME280;3042;43.194;27.646;2023-04-05T05:47:39;101160.28;;;11.40;100.00
6028;BME280;3042;43.194;27.646;2023-04-05T05:50:07;101141.63;;;11.83;100.00
6028;BME280;3042;43.194;27.646;2023-04-05T05:52:35;101161.06;;;11.75;100.00
6028;BME280;3042;43.194;27.646;2023-04-05T05:55:02;100911.22;;;10.66;100.00
6028;BME280;3042;43.194;27.646;2023-04-05T05:57:29;101156.94;;;11.96;100.00
6028;BME280;3042;43.194;27.646;2023-04-05T05:59:56;101101.38;;;11.52;100.00
6028;BME280;3042;43.194;27.646;2023-04-05T06:02:25;101137.81;;;12.33;100.00
6028;BME280;3042;43.194;27.646;2023-04-05T06:04:52;100999.38;;;11.67;100.00
6028;BME280;3042;43.194;27.646;2023-04-05T06:07:19;101019.66;;;11.77;100.00
6028;BME280;3042;43.194;27.646;2023-04-05T06:09:47;101049.75;;;11.75;100.00
6028;BME280;3042;43.194;27.646;2023-04-05T06:12:13;101095.06;;;11.84;100.00
6028;BME280;3042;43.194;27.646;2023-04-05T06:14:40;101149.25;;;12.38;100.00
6028;BME280;3042;43.194;27.646;2023-04-05T06:17:07;101151.13;;;12.41;100.00
6028;BME280;3042;43.194;27.646;2023-04-05T06:19:35;101134.97;;;12.88;100.00
6028;BME280;3042;43.194;27.646;2023-04-05T06:22:02;101154.31;;;12.97;100.00
6028;BME280;3042;43.194;27.646;2023-04-05T06:24:29;101161.84;;;12.70;100.00
6028;BME280;3042;43.194;27.646;2023-04-05T06:26:57;101155.16;;;12.96;100.00
6028;BME280;3042;43.194;27.646;2023-04-05T06:29:24;101161.31;;;12.98;100.00
6028;BME280;3042;43.194;27.646;2023-04-05T06:31:51;101172.78;;;12.62;100.00
6028;BME280;3042;43.194;27.646;2023-04-05T06:34:18;101164.97;;;13.03;100.00
6028;BME280;3042;43.194;27.646;2023-04-05T06:36:46;101151.03;;;13.43;100.00
6028;BME280;3042;43.194;27.646;2023-04-05T06:39:13;101168.75;;;13.32;100.00
6028;BME280;3042;43.194;27.646;2023-04-05T06:41:40;101137.00;;;13.38;100.00
6028;BME280;3042;43.194;27.646;2023-04-05T06:44:07;101180.28;;;13.39;100.00
6028;BME280;3042;43.194;27.646;2023-04-05T06:46:34;101187.44;;;13.23;100.00
6028;BME280;3042;43.194;27.646;2023-04-05T06:49:01;101192.63;;;13.23;100.00
6028;BME280;3042;43.194;27.646;2023-04-05T06:51:28;101187.75;;;13.31;100.00
6028;BME280;3042;43.194;27.646;2023-04-05T06:53:56;101206.94;;;12.73;100.00
6028;BME280;3042;43.194;27.646;2023-04-05T06:56:23;101187.84;;;13.13;100.00
6028;BME280;3042;43.194;27.646;2023-04-05T06:58:50;101181.19;;;13.39;100.00
6028;BME280;3042;43.194;27.646;2023-04-05T07:01:17;101195.13;;;13.22;100.00
6028;BME280;3042;43.194;27.646;2023-04-05T07:03:44;100987.41;;;12.09;100.00
6028;BME280;3042;43.194;27.646;2023-04-05T07:06:11;101204.22;;;13.32;100.00
6028;BME280;3042;43.194;27.646;2023-04-05T07:08:38;101083.38;;;12.32;100.00
6028;BME280;3042;43.194;27.646;2023-04-05T07:11:06;101193.41;;;13.64;100.00
6028;BME280;3042;43.194;27.646;2023-04-05T07:13:33;101198.84;;;13.70;100.00
6028;BME280;3042;43.194;27.646;2023-04-05T07:16:01;101213.59;;;13.49;100.00
6028;BME280;3042;43.194;27.646;2023-04-05T07:18:28;101188.97;;;13.18;100.00
6028;BME280;3042;43.194;27.646;2023-04-05T07:20:56;101217.25;;;13.54;100.00
6028;BME280;3042;43.194;27.646;2023-04-05T07:23:26;101232.69;;;13.09;100.00
6028;BME280;3042;43.194;27.646;2023-04-05T07:25:53;101011.13;;;11.79;100.00
6028;BME280;3042;43.194;27.646;2023-04-05T07:28:22;101226.91;;;13.16;100.00
6028;BME280;3042;43.194;27.646;2023-04-05T07:30:48;101001.50;;;12.16;100.00
6028;BME280;3042;43.194;27.646;2023-04-05T07:33:15;101228.50;;;13.13;100.00
6028;BME280;3042;43.194;27.646;2023-04-05T07:35:42;101231.91;;;12.91;100.00
6028;BME280;3042;43.194;27.646;2023-04-05T07:38:09;101184.22;;;12.27;100.00
6028;BME280;3042;43.194;27.646;2023-04-05T07:40:36;101246.31;;;12.84;100.00
6028;BME280;3042;43.194;27.646;2023-04-05T07:43:03;101229.88;;;12.83;100.00
6028;BME280;3042;43.194;27.646;2023-04-05T07:45:32;101230.91;;;12.48;100.00
6028;BME280;3042;43.194;27.646;2023-04-05T07:47:58;101223.28;;;13.13;100.00
6028;BME280;3042;43.194;27.646;2023-04-05T07:50:26;101213.22;;;13.40;100.00
6028;BME280;3042;43.194;27.646;2023-04-05T07:52:53;101071.91;;;12.48;100.00
6028;BME280;3042;43.194;27.646;2023-04-05T07:55:19;101205.31;;;13.59;100.00
6028;BME280;3042;43.194;27.646;2023-04-05T07:57:46;101206.56;;;13.69;100.00
6028;BME280;3042;43.194;27.646;2023-04-05T08:00:14;100977.16;;;12.33;100.00
6028;BME280;3042;43.194;27.646;2023-04-05T08:02:43;101078.13;;;13.16;100.00
6028;BME280;3042;43.194;27.646;2023-04-05T08:05:10;101161.41;;;13.43;100.00
6028;BME280;3042;43.194;27.646;2023-04-05T08:07:37;101204.97;;;13.95;100.00
6028;BME280;3042;43.194;27.646;2023-04-05T08:10:05;101202.13;;;14.11;100.00
6028;BME280;3042;43.194;27.646;2023-04-05T08:12:33;101204.25;;;14.22;100.00
6028;BME280;3042;43.194;27.646;2023-04-05T08:15:00;101210.75;;;14.10;100.00
6028;BME280;3042;43.194;27.646;2023-04-05T08:17:27;101227.44;;;13.93;100.00
6028;BME280;3042;43.194;27.646;2023-04-05T08:19:56;101215.06;;;14.10;100.00
6028;BME280;3042;43.194;27.646;2023-04-05T08:22:26;101167.72;;;13.94;100.00
6028;BME280;3042;43.194;27.646;2023-04-05T08:24:53;100742.91;;;11.18;100.00
6028;BME280;3042;43.194;27.646;2023-04-05T08:27:20;101240.50;;;13.73;100.00
6028;BME280;3042;43.194;27.646;2023-04-05T08:29:48;101228.34;;;13.95;100.00
6028;BME280;3042;43.194;27.646;2023-04-05T08:32:14;101230.06;;;13.94;100.00
6028;BME280;3042;43.194;27.646;2023-04-05T08:34:41;101236.16;;;13.95;100.00
6028;BME280;3042;43.194;27.646;2023-04-05T08:37:10;100851.06;;;12.32;100.00
6028;BME280;3042;43.194;27.646;2023-04-05T08:39:36;101208.47;;;14.42;100.00
6028;BME280;3042;43.194;27.646;2023-04-05T08:42:07;101207.34;;;14.35;100.00
6028;BME280;3042;43.194;27.646;2023-04-05T08:44:37;101233.09;;;14.05;100.00
6028;BME280;3042;43.194;27.646;2023-04-05T08:47:07;101234.00;;;14.30;100.00
6028;BME280;3042;43.194;27.646;2023-04-05T08:49:34;101206.25;;;14.29;100.00
6028;BME280;3042;43.194;27.646;2023-04-05T08:52:02;100893.09;;;12.70;100.00
6028;BME280;3042;43.194;27.646;2023-04-05T08:54:30;101210.22;;;14.91;100.00
6028;BME280;3042;43.194;27.646;2023-04-05T08:56:57;100988.88;;;13.57;100.00
6028;BME280;3042;43.194;27.646;2023-04-05T08:59:26;101223.63;;;14.78;100.00
6028;BME280;3042;43.194;27.646;2023-04-05T09:01:54;101231.94;;;14.68;100.00
6028;BME280;3042;43.194;27.646;2023-04-05T09:04:23;101215.53;;;14.94;100.00
6028;BME280;3042;43.194;27.646;2023-04-05T09:06:54;101072.97;;;14.33;100.00
6028;BME280;3042;43.194;27.646;2023-04-05T09:09:23;101213.53;;;15.13;100.00
6028;BME280;3042;43.194;27.646;2023-04-05T09:11:52;101216.50;;;14.98;100.00
6028;BME280;3042;43.194;27.646;2023-04-05T09:14:21;101148.97;;;14.51;100.00
6028;BME280;3042;43.194;27.646;2023-04-05T09:16:48;101161.50;;;14.62;100.00
6028;BME280;3042;43.194;27.646;2023-04-05T09:19:15;101203.09;;;15.38;100.00
6028;BME280;3042;43.194;27.646;2023-04-05T09:21:58;101168.91;;;15.83;100.00
6028;BME280;3042;43.194;27.646;2023-04-05T09:24:30;101202.28;;;16.25;100.00
6028;BME280;3042;43.194;27.646;2023-04-05T09:27:06;101136.28;;;15.12;100.00
6028;BME280;3042;43.194;27.646;2023-04-05T09:29:34;101221.47;;;15.70;100.00
6028;BME280;3042;43.194;27.646;2023-04-05T09:32:01;101161.09;;;15.56;100.00
6028;BME280;3042;43.194;27.646;2023-04-05T09:34:29;101218.63;;;15.90;100.00
6028;BME280;3042;43.194;27.646;2023-04-05T09:36:57;101043.88;;;14.97;100.00
6028;BME280;3042;43.194;27.646;2023-04-05T09:39:29;101222.91;;;15.88;100.00
6028;BME280;3042;43.194;27.646;2023-04-05T09:42:09;101202.97;;;16.20;100.00
6028;BME280;3042;43.194;27.646;2023-04-05T09:44:55;101192.53;;;16.50;100.00
6028;BME280;3042;43.194;27.646;2023-04-05T09:47:27;101141.72;;;16.04;100.00
6028;BME280;3042;43.194;27.646;2023-04-05T09:49:55;101215.13;;;16.19;100.00
6028;BME280;3042;43.194;27.646;2023-04-05T09:52:23;101205.97;;;16.34;100.00
6028;BME280;3042;43.194;27.646;2023-04-05T09:54:52;101203.38;;;16.34;100.00
6028;BME280;3042;43.194;27.646;2023-04-05T09:57:22;101196.06;;;16.52;100.00
6028;BME280;3042;43.194;27.646;2023-04-05T09:59:50;101199.22;;;16.72;100.00
6028;BME280;3042;43.194;27.646;2023-04-05T10:02:18;101195.22;;;16.85;100.00
6028;BME280;3042;43.194;27.646;2023-04-05T10:04:45;101198.84;;;16.90;100.00
6028;BME280;3042;43.194;27.646;2023-04-05T10:07:13;101189.25;;;17.24;100.00
6028;BME280;3042;43.194;27.646;2023-04-05T10:09:41;101096.66;;;17.09;100.00
6028;BME280;3042;43.194;27.646;2023-04-05T10:12:09;101197.59;;;17.45;100.00
6028;BME280;3042;43.194;27.646;2023-04-05T10:14:39;101066.19;;;16.40;100.00
6028;BME280;3042;43.194;27.646;2023-04-05T10:17:12;101190.31;;;16.97;100.00
6028;BME280;3042;43.194;27.646;2023-04-05T10:19:53;101220.53;;;17.21;100.00
6028;BME280;3042;43.194;27.646;2023-04-05T10:22:25;101220.66;;;17.27;100.00
6028;BME280;3042;43.194;27.646;2023-04-05T10:24:59;101177.59;;;16.78;100.00
6028;BME280;3042;43.194;27.646;2023-04-05T10:27:29;101234.78;;;17.00;100.00
6028;BME280;3042;43.194;27.646;2023-04-05T10:30:03;101229.13;;;17.17;100.00
6028;BME280;3042;43.194;27.646;2023-04-05T10:32:51;101137.19;;;15.97;100.00
6028;BME280;3042;43.194;27.646;2023-04-05T10:35:26;101156.69;;;16.76;100.00
6028;BME280;3042;43.194;27.646;2023-04-05T10:38:07;101222.44;;;17.28;100.00
6028;BME280;3042;43.194;27.646;2023-04-05T10:40:39;101223.22;;;17.25;100.00
6028;BME280;3042;43.194;27.646;2023-04-05T10:43:15;101225.66;;;17.18;100.00
6028;BME280;3042;43.194;27.646;2023-04-05T10:45:47;101168.53;;;16.32;100.00
6028;BME280;3042;43.194;27.646;2023-04-05T10:48:20;101234.25;;;16.80;100.00
6028;BME280;3042;43.194;27.646;2023-04-05T10:50:51;101251.06;;;16.60;100.00
6028;BME280;3042;43.194;27.646;2023-04-05T10:53:19;101258.41;;;16.43;100.00
6028;BME280;3042;43.194;27.646;2023-04-05T10:55:48;101269.81;;;16.16;100.00
6028;BME280;3042;43.194;27.646;2023-04-05T10:58:17;101256.38;;;16.33;100.00
6028;BME280;3042;43.194;27.646;2023-04-05T11:00:46;101254.56;;;16.30;100.00
6028;BME280;3042;43.194;27.646;2023-04-05T11:03:40;101179.03;;;16.03;100.00
6028;BME280;3042;43.194;27.646;2023-04-05T11:06:21;101253.31;;;16.46;100.00
6028;BME280;3042;43.194;27.646;2023-04-05T11:08:50;101157.13;;;15.96;100.00
6028;BME280;3042;43.194;27.646;2023-04-05T11:11:20;101175.22;;;15.92;100.00
6028;BME280;3042;43.194;27.646;2023-04-05T11:13:52;101208.63;;;16.05;100.00
6028;BME280;3042;43.194;27.646;2023-04-05T11:16:21;101258.53;;;16.48;100.00
6028;BME280;3042;43.194;27.646;2023-04-05T11:18:50;101184.44;;;16.09;100.00
6028;BME280;3042;43.194;27.646;2023-04-05T11:21:22;100879.84;;;14.37;100.00
6028;BME280;3042;43.194;27.646;2023-04-05T11:24:10;101228.09;;;16.46;100.00
6028;BME280;3042;43.194;27.646;2023-04-05T11:26:55;101259.00;;;16.33;100.00
6028;BME280;3042;43.194;27.646;2023-04-05T11:29:45;101243.34;;;16.64;100.00
6028;BME280;3042;43.194;27.646;2023-04-05T11:32:15;101230.25;;;16.93;100.00
6028;BME280;3042;43.194;27.646;2023-04-05T11:34:42;101238.00;;;16.90;100.00
6028;BME280;3042;43.194;27.646;2023-04-05T11:37:10;101263.47;;;16.37;100.00
6028;BME280;3042;43.194;27.646;2023-04-05T11:39:37;101273.03;;;16.08;100.00
6028;BME280;3042;43.194;27.646;2023-04-05T11:42:08;101257.34;;;16.36;100.00
6028;BME280;3042;43.194;27.646;2023-04-05T11:44:44;100854.31;;;14.24;100.00
6028;BME280;3042;43.194;27.646;2023-04-05T11:47:15;101194.00;;;16.10;100.00
6028;BME280;3042;43.194;27.646;2023-04-05T11:49:48;101229.66;;;16.72;100.00
6028;BME280;3042;43.194;27.646;2023-04-05T11:52:16;101217.91;;;16.56;100.00
6028;BME280;3042;43.194;27.646;2023-04-05T11:54:44;101246.63;;;16.57;100.00
6028;BME280;3042;43.194;27.646;2023-04-05T11:57:13;100907.84;;;14.19;100.00
6028;BME280;3042;43.194;27.646;2023-04-05T11:59:42;101246.22;;;16.42;100.00
6028;BME280;3042;43.194;27.646;2023-04-05T12:02:10;101221.59;;;15.73;100.00
6028;BME280;3042;43.194;27.646;2023-04-05T12:04:37;101249.19;;;15.95;100.00
6028;BME280;3042;43.194;27.646;2023-04-05T12:07:11;100828.63;;;13.79;100.00
6028;BME280;3042;43.194;27.646;2023-04-05T12:09:59;101249.66;;;16.41;100.00
6028;BME280;3042;43.194;27.646;2023-04-05T12:12:27;100811.09;;;13.71;100.00
6028;BME280;3042;43.194;27.646;2023-04-05T12:14:58;101250.56;;;16.41;100.00
6028;BME280;3042;43.194;27.646;2023-04-05T12:17:44;101244.53;;;16.44;100.00
6028;BME280;3042;43.194;27.646;2023-04-05T12:20:13;101257.97;;;16.28;100.00
6028;BME280;3042;43.194;27.646;2023-04-05T12:22:43;101135.78;;;15.79;100.00
6028;BME280;3042;43.194;27.646;2023-04-05T12:25:10;101235.66;;;16.37;100.00
6028;BME280;3042;43.194;27.646;2023-04-05T12:27:38;101133.53;;;15.92;100.00
6028;BME280;3042;43.194;27.646;2023-04-05T12:30:11;101234.38;;;16.53;100.00
6028;BME280;3042;43.194;27.646;2023-04-05T12:32:43;101160.28;;;16.46;100.00
6028;BME280;3042;43.194;27.646;2023-04-05T12:35:11;101211.63;;;16.79;100.00
6028;BME280;3042;43.194;27.646;2023-04-05T12:37:39;101210.75;;;16.79;100.00
6028;BME280;3042;43.194;27.646;2023-04-05T12:40:09;101205.53;;;17.14;100.00
6028;BME280;3042;43.194;27.646;2023-04-05T12:42:38;101200.28;;;17.12;100.00
6028;BME280;3042;43.194;27.646;2023-04-05T12:45:07;101199.00;;;17.31;100.00
6028;BME280;3042;43.194;27.646;2023-04-05T12:47:35;100978.22;;;16.33;100.00
6028;BME280;3042;43.194;27.646;2023-04-05T12:50:13;101145.34;;;17.45;100.00
6028;BME280;3042;43.194;27.646;2023-04-05T12:52:51;101189.53;;;17.74;100.00
6028;BME280;3042;43.194;27.646;2023-04-05T12:55:20;101199.78;;;17.65;100.00
6028;BME280;3042;43.194;27.646;2023-04-05T12:57:51;101203.22;;;17.62;100.00
6028;BME280;3042;43.194;27.646;2023-04-05T13:00:19;101088.03;;;16.44;100.00
6028;BME280;3042;43.194;27.646;2023-04-05T13:02:49;101230.25;;;16.93;100.00
6028;BME280;3042;43.194;27.646;2023-04-05T13:05:19;101229.34;;;16.91;100.00